logo dgac
Lunes 20 de Mayo del 2019
Buscar por aerodromo o helipuerto
Ingrese nombre de aeródromo, localidad o designador OACI:
METAR del 20-05-2019 a las 13:00 UTC
METAR SCTB 201300Z 10003KT 9999 BKN170 06/02 Q1020
Viento: dirección 100 grados, velocidad 3 nudos
Visibilidad: 10 km o más
Nubes: Nublado a 17000 pies sobre el nivel del aeródromo
Temperatura: 6 °C
Rocío: 2 °C
Humedad_relativa: 76%
Presión: 1020 hPa
METAR del 20-05-2019 a las 13:00 UTC
METAR SCTB 201300Z 10003KT 9999 BKN170 06/02 Q1020
Viento: dirección 100 grados, velocidad 3 nudos
Visibilidad: 10 km o más
Nubes: Nublado a 17000 pies sobre el nivel del aeródromo
Temperatura: 6 °C
Rocío: 2 °C
Humedad_relativa: 76%
Presión: 1020 hPa
METAR del 20-05-2019 a las 12:00 UTC
METAR SCTB 201200Z 00000KT 9999 BKN170 05/01 Q1020
Visibilidad: 10 km o más
Nubes: Nublado a 17000 pies sobre el nivel del aeródromo
Temperatura: 5 °C
Rocío: 1 °C
Humedad_relativa: 75%
Presión: 1020 hPa
METAR del 20-05-2019 a las 12:00 UTC
METAR SCTB 201200Z 00000KT 9999 BKN170 05/01 Q1020
Visibilidad: 10 km o más
Nubes: Nublado a 17000 pies sobre el nivel del aeródromo
Temperatura: 5 °C
Rocío: 1 °C
Humedad_relativa: 75%
Presión: 1020 hPa
METAR del 19-05-2019 a las 22:00 UTC
METAR SCTB 192200Z 21003KT 9999 BKN170 13/05 Q1017
Viento: dirección 210 grados, velocidad 3 nudos
Visibilidad: 10 km o más
Nubes: Nublado a 17000 pies sobre el nivel del aeródromo
Temperatura: 13 °C
Rocío: 5 °C
Humedad_relativa: 58%
Presión: 1017 hPa
METAR del 19-05-2019 a las 22:00 UTC
METAR SCTB 192200Z 21003KT 9999 BKN170 13/05 Q1017
Viento: dirección 210 grados, velocidad 3 nudos
Visibilidad: 10 km o más
Nubes: Nublado a 17000 pies sobre el nivel del aeródromo
Temperatura: 13 °C
Rocío: 5 °C
Humedad_relativa: 58%
Presión: 1017 hPa
METAR del 19-05-2019 a las 21:00 UTC
METAR SCTB 192100Z 26003KT 9999 OVC150 14/04 Q1016
Viento: dirección 260 grados, velocidad 3 nudos
Visibilidad: 10 km o más
Nubes: Cubierto a 15000 pies sobre el nivel del aeródromo
Temperatura: 14 °C
Rocío: 4 °C
Humedad_relativa: 51%
Presión: 1016 hPa
METAR del 19-05-2019 a las 21:00 UTC
METAR SCTB 192100Z 26003KT 9999 OVC150 14/04 Q1016
Viento: dirección 260 grados, velocidad 3 nudos
Visibilidad: 10 km o más
Nubes: Cubierto a 15000 pies sobre el nivel del aeródromo
Temperatura: 14 °C
Rocío: 4 °C
Humedad_relativa: 51%
Presión: 1016 hPa
METAR del 19-05-2019 a las 20:00 UTC
METAR SCTB 192000Z 22004KT 9999 OVC150 15/04 Q1016
Viento: dirección 220 grados, velocidad 4 nudos
Visibilidad: 10 km o más
Nubes: Cubierto a 15000 pies sobre el nivel del aeródromo
Temperatura: 15 °C
Rocío: 4 °C
Humedad_relativa: 48%
Presión: 1016 hPa
METAR del 19-05-2019 a las 20:00 UTC
METAR SCTB 192000Z 22004KT 9999 OVC150 15/04 Q1016
Viento: dirección 220 grados, velocidad 4 nudos
Visibilidad: 10 km o más
Nubes: Cubierto a 15000 pies sobre el nivel del aeródromo
Temperatura: 15 °C
Rocío: 4 °C
Humedad_relativa: 48%
Presión: 1016 hPa